»·PEaware :: SWA257 KLAX-KLAS

SWA257 :: KLAX-KLAS

FLIGHT INFORMATION

Flight Status: Arrived
Operator:
Southwest Airlines
More flights by this operator :: More flights under this callsign
Pilot: Cody B. (17747)
Aircraft: BOEING 737-800
(B738)
More flights by this aircraft type
Origin: KLAX Los Angeles Intl
United States
Destination: KLAS McCarran Intl
United States
More flights between these airports :: More routes between these airports
Route: ORCKA2 MISEN KEPEC6
File this flight plan on PilotEdge
Remarks:
Altitude:
(Current/Filed)
29,000ft
Speed:
(Current/Filed)
428kts
Departed: 15-May-18 01:21 PM
Arrived: 15-May-18 02:07 PM
Distance/Time
Traveled:
205nm/0:46
Distance/Time
To Go:
Arrived

Flight Plot

Page will automatically refresh every two minutes.

Flight plan parsing failed; only flown route is shown


Map Options




Map Legend


Flown Route
Filed Route
Departure Airport
Arrival Airport
Navaid (VOR, NDB)
Fix

Horizontal Profiles

Position Reports

Time Latitude Longitude Heading Altitude Ground
Speed
15-May-18 12:48 33.947063 -118.401806 92 116ft 0kts
15-May-18 12:49 33.947063 -118.401806 92 116ft 0kts
15-May-18 12:50 33.947063 -118.401806 92 116ft 0kts
15-May-18 12:51 33.947063 -118.401806 92 116ft 0kts
15-May-18 12:52 33.947063 -118.401806 92 116ft 0kts
15-May-18 12:53 33.947063 -118.401806 92 116ft 0kts
15-May-18 12:54 33.947063 -118.401806 92 116ft 0kts
15-May-18 12:55 33.947063 -118.401806 92 116ft 0kts
15-May-18 12:56 33.947063 -118.401806 92 116ft 0kts
15-May-18 12:57 33.947063 -118.401806 92 116ft 0kts
15-May-18 12:58 33.947063 -118.401806 92 116ft 0kts
15-May-18 12:59 33.947063 -118.401806 92 116ft 0kts
15-May-18 13:00 33.947063 -118.401806 92 116ft 0kts
15-May-18 13:01 33.947063 -118.401806 92 116ft 0kts
15-May-18 13:02 33.947063 -118.401806 92 116ft 0kts
15-May-18 13:03 33.947063 -118.401806 92 116ft 0kts
15-May-18 13:04 33.947063 -118.401806 92 116ft 0kts
15-May-18 13:05 33.947063 -118.401806 92 116ft 0kts
15-May-18 13:06 33.947063 -118.401806 92 116ft 0kts
15-May-18 13:07 33.947063 -118.401806 92 116ft 0kts
15-May-18 13:08 33.947063 -118.401806 92 116ft 0kts
15-May-18 13:09 33.947063 -118.401806 92 116ft 0kts
15-May-18 13:10 33.947063 -118.401806 92 116ft 0kts
15-May-18 13:11 33.947063 -118.401806 92 116ft 0kts
15-May-18 13:12 33.947075 -118.402186 92 117ft 1kts
15-May-18 13:13 33.946804 -118.402474 352 117ft 0kts
15-May-18 13:14 33.946805 -118.402474 352 117ft 0kts
15-May-18 13:15 33.946805 -118.402474 352 117ft 0kts
15-May-18 13:16 33.946816 -118.402476 352 117ft 0kts
15-May-18 13:17 33.947448 -118.402567 353 118ft 7kts
15-May-18 13:18 33.949244 -118.401779 29 116ft 1kts
15-May-18 13:19 33.949354 -118.401735 14 116ft 0kts
15-May-18 13:20 33.950053 -118.402136 284 116ft 6kts
15-May-18 13:21 33.948099 -118.422863 263 168ft 167kts
15-May-18 13:22 33.942291 -118.482155 263 2719ft 212kts
15-May-18 13:23 33.935260 -118.562019 263 4771ft 255kts
15-May-18 13:24 33.917189 -118.643919 223 7381ft 267kts
15-May-18 13:25 33.847206 -118.644711 144 10373ft 300kts
15-May-18 13:26 33.824479 -118.545151 71 12725ft 348kts
15-May-18 13:27 33.891702 -118.462353 31 15390ft 363kts
15-May-18 13:28 33.968836 -118.383144 56 17765ft 385kts
15-May-18 13:29 34.024325 -118.274472 55 19655ft 402kts
15-May-18 13:30 34.087532 -118.162020 54 21778ft 412kts
15-May-18 13:31 34.151614 -118.048103 55 23567ft 424kts
15-May-18 13:32 34.218412 -117.928856 54 25223ft 436kts
15-May-18 13:33 34.286969 -117.806495 54 26716ft 447kts
15-May-18 13:34 34.357199 -117.680807 53 28091ft 458kts
15-May-18 13:35 34.432336 -117.554819 52 29066ft 474kts
15-May-18 13:36 34.512187 -117.420576 52 29085ft 507kts
15-May-18 13:37 34.594071 -117.282339 53 29068ft 508kts
15-May-18 13:38 34.676285 -117.143190 53 29072ft 509kts
15-May-18 13:39 34.758423 -117.003542 52 29026ft 509kts
15-May-18 13:40 34.840088 -116.863281 53 29021ft 509kts
15-May-18 13:41 34.921437 -116.723015 53 29021ft 509kts
15-May-18 13:42 35.002045 -116.580420 53 27946ft 515kts
15-May-18 13:43 35.076846 -116.447397 54 24845ft 460kts
15-May-18 13:44 35.154296 -116.332895 41 23783ft 439kts
15-May-18 13:45 35.238613 -116.230337 42 21421ft 425kts
15-May-18 13:46 35.321362 -116.127721 44 19778ft 417kts
15-May-18 13:47 35.398319 -116.030344 43 18344ft 389kts
15-May-18 13:48 35.474463 -115.934340 44 16916ft 385kts
15-May-18 13:49 35.548819 -115.840349 44 15451ft 381kts
15-May-18 13:50 35.620658 -115.749025 44 14049ft 347kts
15-May-18 13:51 35.685373 -115.666393 45 13030ft 328kts
15-May-18 13:52 35.748118 -115.588274 32 13019ft 324kts
15-May-18 13:53 35.833284 -115.569263 359 13028ft 314kts
15-May-18 13:54 35.920556 -115.564905 359 13029ft 314kts
15-May-18 13:55 35.988641 -115.504862 66 12402ft 326kts
15-May-18 13:56 36.019872 -115.408835 69 11336ft 280kts
15-May-18 13:57 36.029009 -115.330554 97 10479ft 287kts
15-May-18 13:58 36.021494 -115.229941 96 9280ft 288kts
15-May-18 13:59 36.015213 -115.140505 97 8000ft 242kts
15-May-18 14:00 36.009766 -115.059135 95 6825ft 239kts
15-May-18 14:01 36.005814 -114.979280 95 5596ft 221kts
15-May-18 14:02 36.026858 -114.917636 19 4903ft 205kts
15-May-18 14:03 36.072972 -114.942151 302 4852ft 187kts
15-May-18 14:04 36.075434 -115.001649 259 4162ft 164kts
15-May-18 14:05 36.073225 -115.056347 269 3193ft 152kts
15-May-18 14:06 36.073598 -115.109698 268 2362ft 159kts
15-May-18 14:07 36.074147 -115.144668 297 2099ft 31kts
15-May-18 14:08 36.074670 -115.145778 300 2102ft 0kts
15-May-18 14:09 36.074925 -115.146274 310 2103ft 7kts
15-May-18 14:10 36.077709 -115.147025 289 2103ft 7kts
15-May-18 14:11 36.078485 -115.147847 52 2103ft 5kts
15-May-18 14:12 36.079622 -115.147660 21 2100ft 1kts
15-May-18 14:13 36.079924 -115.147121 57 2096ft 0kts
15-May-18 14:14 36.079924 -115.147121 57 2096ft 0kts
15-May-18 14:15 36.079924 -115.147121 57 2096ft 0kts

Navigation Log

Ident Type
Flight plan parsing failed, navigation log unavailable